Time;durP1;ratioP1;P1;durP2;ratioP2;P2;SDS_P1;SDS_P2;PMS_P1;PMS_P2;Temp;Humidity;BMP_temperature;BMP_pressure;BME280_temperature;BME280_humidity;BME280_pressure;Samples;Min_cycle;Max_cycle;Signal;HPM_P1;HPM_P2
2024/04/12 00:01:12;;;;;;;6.80;4.35;;;;;;;17.01;50.40;100799.06;5420606;26;19998;-64
2024/04/12 00:03:38;;;;;;;5.72;4.07;;;;;;;17.05;49.89;100804.91;5423921;26;20151;-64
2024/04/12 00:06:06;;;;;;;7.78;4.47;;;;;;;16.99;50.00;100801.09;5421242;26;20091;-63
2024/04/12 00:08:34;;;;;;;5.70;3.90;;;;;;;16.97;50.14;100796.94;5423820;26;19995;-63
2024/04/12 00:11:02;;;;;;;6.50;3.75;;;;;;;17.02;49.64;100798.06;5421318;26;20616;-63
2024/04/12 00:13:31;;;;;;;7.55;4.00;;;;;;;17.05;49.47;100802.22;5424573;26;20008;-63
2024/04/12 00:16:01;;;;;;;5.25;3.80;;;;;;;16.90;49.56;100796.81;5422410;26;20012;-64
2024/04/12 00:18:29;;;;;;;6.78;4.05;;;;;;;16.96;49.44;100797.94;5423755;26;20012;-63
2024/04/12 00:21:00;;;;;;;9.02;4.55;;;;;;;16.89;49.52;100797.81;5421560;26;20003;-64
2024/04/12 00:23:27;;;;;;;7.90;4.45;;;;;;;16.87;49.16;100791.81;5423114;26;19996;-64
2024/04/12 00:26:00;;;;;;;10.52;5.43;;;;;;;16.81;49.49;100787.19;5423376;26;20002;-64
2024/04/12 00:28:30;;;;;;;8.57;5.10;;;;;;;16.78;49.82;100788.34;5422229;26;20098;-63
2024/04/12 00:31:00;;;;;;;7.53;5.18;;;;;;;16.66;50.04;100794.28;5424233;26;20000;-64
2024/04/12 00:33:31;;;;;;;7.95;5.28;;;;;;;16.54;50.45;100794.63;5422102;26;19995;-64
2024/04/12 00:36:07;;;;;;;10.73;5.05;;;;;;;16.58;50.31;100787.09;5422754;26;19991;-64
2024/04/12 00:38:38;;;;;;;7.60;5.10;;;;;;;16.58;50.40;100800.44;5422471;26;20583;-64
2024/04/12 00:41:11;;;;;;;6.43;4.13;;;;;;;16.54;50.16;100777.75;5423202;26;20000;-64
2024/04/12 00:43:49;;;;;;;6.07;4.75;;;;;;;16.67;50.38;100795.94;5419380;26;20037;-63
2024/04/12 00:46:18;;;;;;;5.20;4.38;;;;;;;16.45;51.00;100795.66;5422195;26;20259;-64
2024/04/12 00:48:45;;;;;;;7.22;4.68;;;;;;;16.54;51.51;100797.28;5421114;26;19988;-63
2024/04/12 00:51:16;;;;;;;8.07;4.72;;;;;;;16.55;51.27;100793.63;5422096;26;19998;-63
2024/04/12 00:53:46;;;;;;;7.68;4.40;;;;;;;16.29;52.00;100798.41;5420923;26;20214;-64
2024/04/12 00:56:13;;;;;;;7.30;4.40;;;;;;;16.36;52.13;100791.38;5423334;26;20043;-63
2024/04/12 00:58:42;;;;;;;7.63;3.83;;;;;;;16.29;52.61;100803.75;5419105;26;19996;-64
2024/04/12 01:01:15;;;;;;;5.78;4.43;;;;;;;16.16;53.12;100790.94;5422145;26;19999;-64
2024/04/12 01:03:47;;;;;;;7.80;5.20;;;;;;;16.34;52.63;100796.06;5420411;26;20243;-64
2024/04/12 01:06:32;;;;;;;5.97;3.90;;;;;;;16.40;52.09;100791.84;5422299;26;20326;-64
2024/04/12 01:09:10;;;;;;;4.70;3.75;;;;;;;16.44;51.95;100794.00;5421628;26;19991;-64
2024/04/12 01:11:37;;;;;;;7.95;4.45;;;;;;;16.57;51.68;100785.41;5421497;26;20011;-64
2024/04/12 01:14:05;;;;;;;5.35;3.88;;;;;;;16.45;51.77;100793.00;5420847;26;20000;-63
2024/04/12 01:16:31;;;;;;;6.00;4.45;;;;;;;16.47;51.80;100796.31;5422836;26;20064;-63
2024/04/12 01:18:58;;;;;;;6.43;4.32;;;;;;;16.39;51.91;100791.03;5420658;26;20001;-64
2024/04/12 01:21:27;;;;;;;6.47;4.00;;;;;;;16.48;51.88;100789.97;5422893;26;20349;-63
2024/04/12 01:23:56;;;;;;;6.85;4.70;;;;;;;16.41;51.68;100791.69;5420012;26;20002;-63
2024/04/12 01:26:24;;;;;;;7.30;4.80;;;;;;;16.43;51.81;100784.31;5422772;26;20051;-63
2024/04/12 01:28:51;;;;;;;7.75;4.88;;;;;;;16.45;51.73;100786.81;5422165;26;19999;-63
2024/04/12 01:31:19;;;;;;;9.30;5.70;;;;;;;16.43;52.15;100797.69;5420910;26;20018;-64
2024/04/12 01:33:48;;;;;;;9.82;5.38;;;;;;;16.48;52.01;100784.63;5422536;26;20002;-64
2024/04/12 01:36:18;;;;;;;7.90;5.35;;;;;;;16.36;51.70;100794.03;5420344;26;19991;-64
2024/04/12 01:38:53;;;;;;;8.48;4.97;;;;;;;16.36;52.20;100785.19;5422963;26;19999;-64
2024/04/12 01:41:31;;;;;;;9.60;5.93;;;;;;;16.31;52.12;100796.41;5421791;26;20003;-65
2024/04/12 01:44:04;;;;;;;9.05;5.05;;;;;;;16.32;52.60;100797.25;5423343;26;20222;-65
2024/04/12 01:46:34;;;;;;;8.98;5.20;;;;;;;16.22;52.71;100787.59;5420695;26;20016;-65
2024/04/12 01:49:10;;;;;;;9.25;5.70;;;;;;;16.19;52.71;100795.13;5421574;26;20026;-65
2024/04/12 01:51:36;;;;;;;7.68;5.18;;;;;;;16.22;52.68;100794.78;5420409;26;20095;-64
2024/04/12 01:54:17;;;;;;;7.50;5.25;;;;;;;15.89;53.29;100786.88;5421833;26;19992;-65
2024/04/12 01:56:47;;;;;;;7.63;4.43;;;;;;;16.16;52.81;100793.63;5419483;26;20198;-65
2024/04/12 01:59:23;;;;;;;8.90;5.03;;;;;;;15.92;53.27;100793.69;5422322;26;20229;-64
2024/04/12 02:01:53;;;;;;;6.18;4.70;;;;;;;15.91;53.34;100795.53;5420293;26;20003;-66
2024/04/12 02:04:21;;;;;;;9.05;5.32;;;;;;;16.08;52.55;100787.47;5421659;26;20019;-63
2024/04/12 02:06:51;;;;;;;9.25;5.13;;;;;;;16.13;52.47;100788.63;5420011;26;20008;-62
2024/04/12 02:09:19;;;;;;;6.55;4.90;;;;;;;16.16;52.20;100784.78;5422069;26;20391;-63
2024/04/12 02:11:46;;;;;;;10.35;5.05;;;;;;;16.18;52.13;100791.63;5420769;26;19991;-63
2024/04/12 02:14:13;;;;;;;6.90;4.85;;;;;;;16.15;52.46;100791.97;5422642;26;19991;-62
2024/04/12 02:16:41;;;;;;;7.72;4.95;;;;;;;16.15;52.43;100793.78;5420573;26;20000;-63
2024/04/12 02:19:10;;;;;;;9.43;5.43;;;;;;;15.91;53.04;100800.88;5422537;26;20095;-62
2024/04/12 02:21:40;;;;;;;6.38;4.68;;;;;;;16.02;53.03;100796.19;5419251;26;20199;-63
2024/04/12 02:24:11;;;;;;;8.10;4.88;;;;;;;16.08;52.86;100806.19;5421159;26;19999;-63
2024/04/12 02:26:40;;;;;;;9.55;5.10;;;;;;;16.07;53.08;100802.66;5420558;26;20049;-63
2024/04/12 02:29:06;;;;;;;6.80;4.78;;;;;;;15.98;53.30;100800.19;5422467;26;20219;-63
2024/04/12 02:31:35;;;;;;;12.02;5.72;;;;;;;15.93;53.51;100796.19;5421243;26;20016;-65
2024/04/12 02:34:02;;;;;;;8.40;5.40;;;;;;;16.02;53.60;100802.34;5423253;26;20028;-62
2024/04/12 02:36:32;;;;;;;7.90;5.05;;;;;;;16.03;53.42;100796.00;5421782;26;20045;-63
2024/04/12 02:38:58;;;;;;;10.27;5.50;;;;;;;16.03;53.44;100796.00;5419891;26;20007;-63
2024/04/12 02:41:30;;;;;;;6.75;5.13;;;;;;;16.08;53.35;100795.50;5422184;26;19995;-62
2024/04/12 02:44:01;;;;;;;10.32;4.95;;;;;;;16.09;53.35;100792.66;5421025;26;19991;-62
2024/04/12 02:46:27;;;;;;;8.10;4.80;;;;;;;16.12;53.24;100791.47;5421538;26;20012;-63
2024/04/12 02:48:54;;;;;;;6.47;4.68;;;;;;;16.09;53.16;100787.31;5419584;26;20065;-63
2024/04/12 02:51:22;;;;;;;7.78;4.97;;;;;;;16.12;53.48;100802.16;5419956;26;20210;-63
2024/04/12 02:53:50;;;;;;;5.82;4.60;;;;;;;16.02;53.72;100798.84;5420231;26;20000;-63
2024/04/12 02:56:17;;;;;;;7.97;4.22;;;;;;;16.04;53.48;100792.34;5421216;26;20011;-63
2024/04/12 02:58:48;;;;;;;7.25;4.63;;;;;;;16.07;53.59;100793.81;5418664;26;20149;-63
2024/04/12 03:01:26;;;;;;;7.65;4.60;;;;;;;16.11;53.79;100793.31;5420894;26;20300;-63
2024/04/12 03:03:55;;;;;;;6.88;5.07;;;;;;;16.21;53.08;100796.59;5420675;26;20011;-63
2024/04/12 03:06:31;;;;;;;8.00;5.05;;;;;;;16.34;52.65;100797.91;5422579;26;19992;-63
2024/04/12 03:09:01;;;;;;;7.43;4.45;;;;;;;16.39;52.85;100799.03;5420800;26;19999;-63
2024/04/12 03:11:34;;;;;;;6.78;4.70;;;;;;;16.38;52.98;100804.56;5420958;26;20202;-63
2024/04/12 03:14:09;;;;;;;7.03;4.35;;;;;;;16.31;53.05;100803.59;5421981;26;20285;-63
2024/04/12 03:16:40;;;;;;;6.90;4.72;;;;;;;16.32;53.19;100811.44;5421472;26;20222;-63
2024/04/12 03:19:10;;;;;;;7.50;4.72;;;;;;;16.33;53.41;100813.09;5420910;26;20024;-63
2024/04/12 03:21:37;;;;;;;9.25;5.32;;;;;;;16.36;53.30;100809.25;5422531;26;19991;-63
2024/04/12 03:24:08;;;;;;;8.68;5.45;;;;;;;16.35;53.27;100802.22;5421407;26;19995;-63
2024/04/12 03:26:35;;;;;;;7.57;5.00;;;;;;;16.28;53.62;100813.63;5422121;26;20019;-63
2024/04/12 03:29:05;;;;;;;6.78;5.25;;;;;;;16.19;54.05;100806.63;5426364;26;19999;-62
2024/04/12 03:31:38;;;;;;;5.72;4.65;;;;;;;16.10;54.57;100820.19;5424278;26;20002;-62
2024/04/12 03:34:07;;;;;;;6.28;4.50;;;;;;;15.70;56.07;100813.13;5426250;26;20052;-63
2024/04/12 03:42:08;;;;;;;11.18;6.68;;;;;;;15.92;55.70;100815.06;5422966;26;19995;-63
2024/04/12 03:44:36;;;;;;;10.25;6.28;;;;;;;15.89;55.83;100818.91;5425622;26;20095;-63
2024/04/12 03:47:09;;;;;;;9.00;6.28;;;;;;;15.97;55.67;100823.41;5424809;26;20057;-63
2024/04/12 03:49:39;;;;;;;13.02;6.25;;;;;;;16.03;55.47;100821.88;5426287;26;20056;-63
2024/04/12 03:52:11;;;;;;;11.32;6.30;;;;;;;16.06;55.67;100819.72;5423097;26;20189;-63
2024/04/12 03:54:37;;;;;;;12.63;6.55;;;;;;;16.17;55.44;100815.84;5426332;26;20238;-63
2024/04/12 03:57:06;;;;;;;8.48;5.72;;;;;;;16.26;54.72;100820.97;5423593;26;19999;-63
2024/04/12 03:59:36;;;;;;;9.55;5.32;;;;;;;16.15;55.00;100818.69;5426210;26;20213;-63
2024/04/12 04:02:07;;;;;;;12.43;5.90;;;;;;;16.05;55.33;100825.22;5423754;26;20006;-64
2024/04/12 04:04:37;;;;;;;9.70;5.47;;;;;;;16.05;55.68;100830.56;5425635;26;20473;-63
2024/04/12 04:07:05;;;;;;;8.95;5.85;;;;;;;16.16;55.77;100833.72;5423404;26;19999;-64
2024/04/12 04:09:32;;;;;;;13.23;5.78;;;;;;;16.14;55.03;100834.88;5425745;26;20003;-63
2024/04/12 04:11:58;;;;;;;9.43;5.95;;;;;;;16.16;54.95;100830.19;5421944;26;20218;-63
2024/04/12 04:14:28;;;;;;;12.00;5.30;;;;;;;16.14;55.08;100833.03;5425295;26;19991;-63
2024/04/12 04:17:02;;;;;;;16.25;5.72;;;;;;;16.16;55.22;100841.72;5420956;26;20133;-63
2024/04/12 04:19:35;;;;;;;10.65;5.65;;;;;;;16.21;55.04;100843.88;5424895;26;19992;-63
2024/04/12 04:22:04;;;;;;;12.60;5.97;;;;;;;16.31;54.92;100849.84;5422662;26;20161;-63
2024/04/12 04:24:32;;;;;;;9.00;5.00;;;;;;;16.39;54.53;100852.50;5425390;26;20241;-62
2024/04/12 04:26:58;;;;;;;14.23;6.03;;;;;;;16.49;54.44;100850.47;5421367;26;20019;-63
2024/04/12 04:29:24;;;;;;;16.38;5.80;;;;;;;16.61;54.29;100849.06;5421941;26;20007;-62
2024/04/12 04:31:52;;;;;;;12.18;6.28;;;;;;;16.66;54.10;100845.09;5418878;26;19995;-63
2024/04/12 04:34:20;;;;;;;10.82;5.07;;;;;;;16.60;54.29;100847.41;5422536;26;19996;-63
2024/04/12 04:36:55;;;;;;;9.30;4.88;;;;;;;16.57;54.25;100844.25;5420431;26;19991;-63
2024/04/12 04:39:23;;;;;;;17.77;5.57;;;;;;;16.59;54.47;100855.59;5422357;26;20210;-63
2024/04/12 04:41:53;;;;;;;11.52;5.15;;;;;;;16.57;55.03;100853.09;5421450;26;20229;-64
2024/04/12 04:44:21;;;;;;;9.30;4.93;;;;;;;16.58;54.88;100854.75;5422354;26;20007;-63
2024/04/12 04:46:49;;;;;;;7.63;4.85;;;;;;;16.59;55.02;100853.75;5420602;26;20133;-63
2024/04/12 04:49:20;;;;;;;10.23;5.10;;;;;;;16.60;55.14;100858.09;5420992;26;20052;-63
2024/04/12 04:51:48;;;;;;;9.93;5.32;;;;;;;16.68;55.15;100862.63;5421287;26;20140;-63
2024/04/12 04:54:16;;;;;;;13.70;5.95;;;;;;;16.58;55.71;100860.09;5421329;26;20057;-63
2024/04/12 04:56:43;;;;;;;10.35;5.00;;;;;;;16.55;56.02;100860.44;5422528;26;20041;-63
2024/04/12 04:59:16;;;;;;;8.70;4.60;;;;;;;16.65;55.71;100867.47;5420147;26;20005;-63
2024/04/12 05:01:48;;;;;;;7.70;4.60;;;;;;;16.60;56.24;100858.09;5421995;26;20190;-63
2024/04/12 05:04:20;;;;;;;10.73;5.00;;;;;;;16.46;56.72;100866.00;5420682;26;20089;-63
2024/04/12 05:06:53;;;;;;;12.82;5.20;;;;;;;16.40;56.80;100866.69;5421459;26;20349;-63
2024/04/12 05:09:22;;;;;;;11.68;5.95;;;;;;;16.58;56.78;100870.81;5419443;26;19996;-64
2024/04/12 05:11:52;;;;;;;7.32;5.43;;;;;;;16.67;56.74;100873.50;5420835;26;20018;-63
2024/04/12 05:17:04;;;;;;;10.00;4.82;;;;;;;16.84;56.95;100875.09;5422197;26;20011;-63
2024/04/12 05:19:40;;;;;;;11.35;5.63;;;;;;;16.77;56.32;100872.28;5419791;26;20102;-63
2024/04/12 05:22:07;;;;;;;15.65;6.07;;;;;;;16.76;56.74;100875.97;5421364;26;20211;-63
2024/04/12 05:24:35;;;;;;;12.55;6.40;;;;;;;16.93;56.74;100882.06;5419801;26;19988;-63
2024/04/12 05:27:05;;;;;;;13.25;5.95;;;;;;;17.07;55.36;100888.50;5421132;26;19987;-63
2024/04/12 05:29:31;;;;;;;12.75;6.13;;;;;;;17.14;55.40;100890.31;5420228;26;19995;-63
2024/04/12 05:31:58;;;;;;;16.50;5.78;;;;;;;17.13;56.23;100885.13;5421800;26;19999;-63
2024/04/12 05:34:28;;;;;;;11.52;6.65;;;;;;;17.18;56.44;100878.22;5420142;26;19992;-63
2024/04/12 05:37:03;;;;;;;15.95;6.68;;;;;;;17.24;56.37;100884.72;5421229;26;19999;-63
2024/04/12 05:39:41;;;;;;;9.68;6.22;;;;;;;17.06;56.50;100887.69;5419522;26;20031;-63
2024/04/12 05:42:09;;;;;;;10.20;4.95;;;;;;;17.12;56.58;100880.78;5421541;26;20003;-64
2024/04/12 05:44:41;;;;;;;11.07;5.57;;;;;;;17.29;56.39;100878.84;5419528;26;20905;-64
2024/04/12 05:47:09;;;;;;;11.50;5.43;;;;;;;17.36;56.64;100877.09;5420890;26;20005;-64
2024/04/12 05:49:36;;;;;;;12.50;5.90;;;;;;;17.53;56.69;100878.66;5421545;26;19987;-63
2024/04/12 05:52:03;;;;;;;15.77;6.70;;;;;;;17.62;56.69;100877.56;5419862;26;20000;-62
2024/04/12 05:54:44;;;;;;;14.52;6.10;;;;;;;17.60;56.74;100873.41;5421427;26;20010;-63
2024/04/12 05:57:11;;;;;;;14.43;5.43;;;;;;;17.60;56.81;100876.09;5419093;26;20176;-63
2024/04/12 05:59:38;;;;;;;11.88;5.53;;;;;;;17.53;58.38;100870.63;5420771;26;20210;-63
2024/04/12 06:02:05;;;;;;;10.65;6.10;;;;;;;17.63;58.77;100879.22;5419023;26;20007;-63
2024/04/12 06:04:31;;;;;;;12.98;6.32;;;;;;;17.87;58.61;100883.59;5421272;26;19999;-62
2024/04/12 06:07:01;;;;;;;8.98;5.60;;;;;;;17.95;58.13;100883.53;5419041;26;19999;-63
2024/04/12 06:09:27;;;;;;;9.73;5.90;;;;;;;18.03;58.08;100882.63;5421175;26;19995;-63
2024/04/12 06:11:54;;;;;;;12.75;5.10;;;;;;;18.23;57.83;100889.09;5418462;26;21429;-63
2024/04/12 06:14:22;;;;;;;11.55;5.35;;;;;;;18.33;58.06;100896.88;5421647;26;20002;-63
2024/04/12 06:16:54;;;;;;;13.35;6.25;;;;;;;18.29;57.97;100893.72;5417942;26;20247;-63
2024/04/12 06:19:20;;;;;;;12.35;6.07;;;;;;;18.55;58.37;100887.91;5419690;26;20003;-63
2024/04/12 06:21:46;;;;;;;12.05;6.15;;;;;;;18.76;57.77;100885.34;5419398;26;20321;-63
2024/04/12 06:24:17;;;;;;;11.02;6.10;;;;;;;18.83;57.40;100892.66;5421841;26;20015;-63
2024/04/12 06:26:47;;;;;;;8.43;5.80;;;;;;;19.00;57.20;100884.19;5417393;26;20106;-63
2024/04/12 06:29:16;;;;;;;12.48;6.50;;;;;;;19.39;56.43;100885.63;5420807;26;19997;-63
2024/04/12 06:31:46;;;;;;;12.77;6.53;;;;;;;19.46;55.65;100884.66;5419859;26;20035;-63
2024/04/12 06:34:17;;;;;;;11.32;6.82;;;;;;;19.44;55.48;100884.03;5419979;26;20025;-63
2024/04/12 06:36:45;;;;;;;11.68;6.90;;;;;;;19.57;56.06;100886.03;5419529;26;20203;-63
2024/04/12 06:39:12;;;;;;;13.30;7.15;;;;;;;19.37;55.92;100887.66;5419827;26;20288;-63
2024/04/12 06:41:38;;;;;;;14.88;7.75;;;;;;;19.48;55.54;100886.31;5418051;26;20011;-63
2024/04/12 06:44:04;;;;;;;13.73;7.13;;;;;;;19.74;55.17;100890.09;5420042;26;20126;-63
2024/04/12 06:46:32;;;;;;;13.63;7.30;;;;;;;20.12;54.61;100886.28;5418073;26;20199;-63
2024/04/12 06:49:07;;;;;;;19.80;7.47;;;;;;;20.57;53.89;100885.75;5420610;26;20003;-63
2024/04/12 06:52:02;;;;;;;15.45;8.20;;;;;;;20.60;52.38;100893.44;5420374;26;19999;-63
2024/04/12 06:54:25;;;;;;;11.25;6.80;;;;;;;20.73;53.03;100888.09;5421361;26;20102;-63
2024/04/12 06:56:51;;;;;;;12.02;6.20;;;;;;;20.59;52.03;100888.25;5419212;26;19999;-64
2024/04/12 06:59:26;;;;;;;10.98;6.35;;;;;;;20.64;51.98;100888.47;5420292;26;20001;-63
2024/04/12 07:01:54;;;;;;;10.10;6.60;;;;;;;20.98;50.64;100891.13;5418064;26;20002;-63
2024/04/12 07:04:20;;;;;;;9.40;5.75;;;;;;;21.45;50.22;100885.88;5420315;26;19992;-64
2024/04/12 07:06:50;;;;;;;10.82;6.40;;;;;;;21.83;48.24;100888.81;5419976;26;20061;-64
2024/04/12 07:09:16;;;;;;;10.07;5.43;;;;;;;21.87;48.36;100885.50;5419574;26;20003;-63
2024/04/12 07:11:42;;;;;;;11.45;6.20;;;;;;;21.91;47.52;100885.94;5419398;26;20102;-63
2024/04/12 07:14:08;;;;;;;9.15;5.40;;;;;;;21.99;47.88;100875.75;5419448;26;20287;-64
2024/04/12 07:16:35;;;;;;;12.23;5.90;;;;;;;21.89;48.10;100872.66;5419977;26;20003;-63
2024/04/12 07:19:08;;;;;;;9.30;5.40;;;;;;;22.12;48.14;100876.81;5417594;26;20002;-63
2024/04/12 07:21:38;;;;;;;8.75;5.82;;;;;;;22.22;47.59;100877.19;5419818;26;20351;-64
2024/04/12 07:24:05;;;;;;;12.48;5.78;;;;;;;22.32;46.59;100880.28;5418612;26;20004;-63
2024/04/12 07:26:32;;;;;;;9.65;5.63;;;;;;;22.52;46.63;100872.97;5421453;26;19992;-63
2024/04/12 07:29:02;;;;;;;6.78;5.05;;;;;;;22.84;45.30;100871.19;5418772;26;19987;-63
2024/04/12 07:31:30;;;;;;;10.95;5.97;;;;;;;23.11;46.39;100866.50;5421191;26;20004;-64
2024/04/12 07:34:00;;;;;;;11.00;5.95;;;;;;;23.19;45.33;100868.97;5420268;26;20011;-63
2024/04/12 07:36:30;;;;;;;11.27;5.63;;;;;;;23.49;44.28;100871.03;5421952;26;19998;-64
2024/04/12 07:39:03;;;;;;;9.88;5.40;;;;;;;23.62;43.63;100872.84;5419650;26;19996;-64
2024/04/12 07:41:45;;;;;;;9.45;5.90;;;;;;;23.60;42.90;100872.25;5421226;26;20012;-63
2024/04/12 07:44:14;;;;;;;10.68;5.20;;;;;;;23.79;43.67;100873.94;5419062;26;20023;-63
2024/04/12 07:46:51;;;;;;;13.45;6.60;;;;;;;24.00;43.58;100870.88;5420292;26;20243;-64
2024/04/12 07:49:18;;;;;;;10.00;5.43;;;;;;;24.16;43.05;100869.47;5445232;26;20003;-64
2024/04/12 07:51:47;;;;;;;7.15;4.95;;;;;;;24.29;42.54;100872.06;5419825;26;20090;-64
2024/04/12 07:54:15;;;;;;;9.00;5.60;;;;;;;24.53;42.27;100859.50;5419016;26;20000;-64
2024/04/12 07:56:44;;;;;;;7.35;5.43;;;;;;;24.78;40.62;100867.53;5420014;26;20002;-64
2024/04/12 07:59:15;;;;;;;8.60;6.18;;;;;;;24.73;40.25;100868.22;5419261;26;19992;-64
2024/04/12 08:01:45;;;;;;;9.18;5.25;;;;;;;24.81;39.65;100867.06;5420004;26;20526;-63
2024/04/12 08:04:25;;;;;;;8.70;5.88;;;;;;;24.83;39.78;100870.38;5418648;26;19991;-63
2024/04/12 08:06:55;;;;;;;10.70;5.28;;;;;;;24.88;39.28;100865.09;5417559;26;19999;-64
2024/04/12 08:09:34;;;;;;;9.50;6.10;;;;;;;24.84;39.17;100862.03;5417890;26;19994;-64
2024/04/12 08:12:13;;;;;;;7.78;5.70;;;;;;;24.65;40.16;100851.44;5418504;26;20090;-63
2024/04/12 08:14:39;;;;;;;7.05;5.10;;;;;;;24.52;40.58;100861.38;5421860;26;19996;-64
2024/04/12 08:17:14;;;;;;;8.52;5.43;;;;;;;24.60;40.60;100856.72;5422914;26;19995;-63
2024/04/12 08:19:45;;;;;;;7.43;5.40;;;;;;;24.56;41.09;100860.94;5421797;26;20023;-63
2024/04/12 08:22:21;;;;;;;9.38;5.93;;;;;;;24.56;41.73;100860.94;5422722;26;20114;-63
2024/04/12 08:24:51;;;;;;;10.60;5.63;;;;;;;24.53;41.79;100856.81;5420621;26;19991;-64
2024/04/12 08:27:24;;;;;;;7.38;5.15;;;;;;;24.76;41.40;100856.91;5422414;26;20003;-65
2024/04/12 08:29:57;;;;;;;8.03;5.43;;;;;;;24.96;40.74;100855.84;5420741;26;19998;-62
2024/04/12 08:32:31;;;;;;;8.57;5.65;;;;;;;25.09;40.15;100859.25;5421301;26;20002;-63
2024/04/12 08:34:58;;;;;;;10.30;5.65;;;;;;;25.25;40.13;100854.22;5420772;26;20369;-63
2024/04/12 08:37:32;;;;;;;9.50;5.85;;;;;;;25.42;40.07;100845.19;5420662;26;19995;-63
2024/04/12 08:40:08;;;;;;;9.18;5.82;;;;;;;25.59;39.87;100847.22;5420880;26;20000;-62
2024/04/12 08:42:34;;;;;;;6.43;5.57;;;;;;;25.67;38.27;100838.75;5421996;26;20013;-63
2024/04/12 08:45:13;;;;;;;7.53;5.70;;;;;;;25.71;37.56;100835.34;5421401;26;19998;-62
2024/04/12 08:48:01;;;;;;;9.25;5.45;;;;;;;25.83;38.08;100832.63;5420937;26;20214;-62
2024/04/12 08:50:31;;;;;;;5.80;4.55;;;;;;;25.93;36.97;100829.34;5419041;26;20173;-63
2024/04/12 08:52:58;;;;;;;5.55;5.00;;;;;;;25.94;36.80;100828.25;5423766;26;20226;-63
2024/04/12 08:55:28;;;;;;;8.32;6.28;;;;;;;26.01;37.01;100821.69;5421462;26;20019;-63
2024/04/12 08:58:00;;;;;;;6.57;5.38;;;;;;;26.12;35.70;100820.03;5422499;26;20003;-63
2024/04/12 09:00:32;;;;;;;6.22;4.78;;;;;;;26.15;36.60;100816.81;5421921;26;20190;-63
2024/04/12 09:03:02;;;;;;;6.35;5.00;;;;;;;26.19;35.67;100817.19;5420042;26;19991;-63
2024/04/12 09:05:36;;;;;;;7.93;4.53;;;;;;;26.16;35.68;100810.34;5422576;26;20320;-62
2024/04/12 09:08:03;;;;;;;6.45;4.85;;;;;;;26.25;34.96;100810.78;5420889;26;20000;-64
2024/04/12 09:10:34;;;;;;;8.35;5.00;;;;;;;26.31;34.67;100813.38;5422609;26;20002;-63
2024/04/12 09:13:08;;;;;;;8.50;5.15;;;;;;;26.29;33.60;100796.50;5420521;26;20095;-63
2024/04/12 09:15:42;;;;;;;4.95;4.50;;;;;;;26.40;34.35;100797.56;5421601;26;20037;-62
2024/04/12 09:18:15;;;;;;;9.13;5.90;;;;;;;26.42;33.15;100800.84;5419714;26;20007;-63
2024/04/12 09:20:52;;;;;;;6.53;5.10;;;;;;;26.43;33.73;100799.78;5421624;26;20016;-62
2024/04/12 09:23:32;;;;;;;5.25;4.35;;;;;;;26.42;34.05;100786.47;5420947;26;19995;-63
2024/04/12 09:25:59;;;;;;;9.13;4.78;;;;;;;26.28;33.97;100788.59;5421634;26;20007;-63
2024/04/12 09:28:27;;;;;;;6.50;5.00;;;;;;;26.24;34.78;100785.53;5419738;26;20006;-62
2024/04/12 09:33:39;;;;;;;6.53;4.75;;;;;;;25.97;33.26;100774.34;5420111;26;20002;-63
2024/04/12 09:36:14;;;;;;;6.72;5.05;;;;;;;25.78;33.41;100775.53;5421377;26;20010;-63
2024/04/12 09:38:41;;;;;;;7.15;5.30;;;;;;;25.71;33.64;100775.66;5420169;26;20045;-64
2024/04/12 09:41:31;;;;;;;8.55;5.65;;;;;;;25.68;33.57;100765.28;5421008;26;19988;-63
2024/04/12 09:44:03;;;;;;;7.53;5.05;;;;;;;25.71;35.99;100756.69;5420437;26;19995;-63
2024/04/12 10:37:23;;;;;;;6.80;5.05;;;;;;;25.77;35.65;100758.44;5422189;26;20004;-62
2024/04/12 10:39:44;;;;;;;6.93;4.72;;;;;;;25.55;33.35;100713.16;5420381;26;20604;-62
2024/04/12 10:42:13;;;;;;;5.03;4.28;;;;;;;25.45;31.86;100708.31;5421599;26;20007;-62
2024/04/12 10:44:48;;;;;;;5.05;4.55;;;;;;;25.46;31.52;100702.66;5419077;26;20953;-63
2024/04/12 10:47:20;;;;;;;8.07;4.63;;;;;;;25.51;33.00;100703.84;5420872;26;20066;-63
2024/04/12 10:49:51;;;;;;;6.28;4.72;;;;;;;25.61;32.63;100702.16;5420007;26;19996;-63
2024/04/12 10:52:28;;;;;;;7.50;4.20;;;;;;;25.62;31.83;100703.00;5422497;26;20084;-62
2024/04/12 10:55:10;;;;;;;7.15;5.15;;;;;;;25.63;32.74;100699.22;5420107;26;19995;-62
2024/04/12 10:57:40;;;;;;;7.18;4.75;;;;;;;25.62;32.04;100700.28;5422187;26;20003;-63
2024/04/12 11:00:17;;;;;;;5.85;4.80;;;;;;;25.68;33.05;100702.09;5418305;26;19992;-62
2024/04/12 11:02:54;;;;;;;7.25;5.15;;;;;;;25.65;33.78;100695.25;5421233;26;20011;-63
2024/04/12 11:07:49;;;;;;;6.00;4.75;;;;;;;25.71;32.54;100685.31;5420149;26;19991;-62
2024/04/12 11:10:38;;;;;;;11.32;4.93;;;;;;;25.78;32.45;100686.84;5418255;26;20007;-62
2024/04/12 11:13:22;;;;;;;6.03;4.72;;;;;;;25.81;31.60;100677.41;5423213;26;19991;-62
2024/04/12 11:32:30;;;;;;;6.82;4.82;;;;;;;25.63;32.27;100653.13;5421193;26;20010;-63
2024/04/12 11:34:56;;;;;;;5.05;4.28;;;;;;;25.74;34.02;100657.72;5422892;26;19995;-63
2024/04/12 11:37:24;;;;;;;11.05;4.88;;;;;;;25.92;32.71;100649.41;5418666;26;20002;-63
2024/04/12 11:39:53;;;;;;;8.38;4.90;;;;;;;26.10;33.57;100648.44;5419550;26;20286;-63
2024/04/12 11:42:19;;;;;;;6.13;4.95;;;;;;;26.15;32.88;100645.81;5418724;26;20002;-62
2024/04/12 11:44:47;;;;;;;5.45;4.90;;;;;;;26.17;32.06;100642.84;5418547;26;19992;-62
2024/04/12 11:47:16;;;;;;;8.95;5.70;;;;;;;26.06;31.93;100639.13;5418588;26;19996;-63
2024/04/12 11:49:45;;;;;;;5.25;4.50;;;;;;;25.99;32.75;100635.72;5422544;26;20160;-63
2024/04/12 11:52:21;;;;;;;7.13;4.70;;;;;;;26.10;32.29;100634.88;5422152;26;20053;-63
2024/04/12 11:54:58;;;;;;;9.05;5.13;;;;;;;26.27;32.77;100637.63;5422458;26;20024;-63
2024/04/12 11:57:30;;;;;;;7.75;4.90;;;;;;;26.42;32.28;100626.25;5421477;26;19999;-64
2024/04/12 11:59:59;;;;;;;7.07;5.03;;;;;;;26.45;31.81;100629.28;5422393;26;19996;-63
2024/04/12 12:02:28;;;;;;;4.95;4.43;;;;;;;26.37;32.44;100624.25;5421748;26;19996;-63
2024/04/12 12:04:54;;;;;;;6.15;4.68;;;;;;;26.26;31.97;100616.97;5422627;26;20006;-63
2024/04/12 12:07:23;;;;;;;9.98;5.88;;;;;;;26.18;31.64;100615.47;5422724;26;19991;-63
2024/04/12 12:09:49;;;;;;;6.78;4.75;;;;;;;26.12;32.25;100610.19;5424649;26;19998;-63
2024/04/12 12:12:16;;;;;;;7.03;4.55;;;;;;;26.12;31.49;100612.91;5421074;26;19999;-63
2024/04/12 12:14:43;;;;;;;5.40;4.57;;;;;;;26.14;31.66;100608.06;5423149;26;20020;-63
2024/04/12 12:17:09;;;;;;;7.20;4.57;;;;;;;26.13;31.65;100598.28;5421208;26;20011;-62
2024/04/12 12:19:36;;;;;;;7.03;4.28;;;;;;;26.07;32.39;100600.06;5423308;26;19991;-63
2024/04/12 12:22:03;;;;;;;7.68;4.20;;;;;;;26.13;32.85;100593.66;5420978;26;19998;-62
2024/04/12 12:24:30;;;;;;;5.35;4.43;;;;;;;26.19;32.05;100591.88;5422535;26;20006;-62
2024/04/12 12:26:58;;;;;;;4.97;4.47;;;;;;;26.19;30.53;100589.16;5420880;26;19999;-62
2024/04/12 12:29:25;;;;;;;6.07;4.70;;;;;;;26.19;31.21;100581.00;5421592;26;20243;-63
2024/04/12 12:31:54;;;;;;;5.65;4.60;;;;;;;26.16;32.02;100576.06;5420686;26;20007;-63
2024/04/12 12:34:22;;;;;;;7.47;4.63;;;;;;;26.20;31.46;100572.63;5421842;26;20007;-63
2024/04/12 12:36:49;;;;;;;180.30;25.60;;;;;;;26.19;31.32;100576.41;5421713;26;19995;-63
2024/04/12 12:39:19;;;;;;;17.48;6.88;;;;;;;26.12;32.05;100574.91;5422200;26;19998;-63
2024/04/12 12:41:45;;;;;;;6.65;4.75;;;;;;;26.11;32.76;100573.25;5422400;26;19988;-63
2024/04/12 12:44:18;;;;;;;7.50;4.35;;;;;;;26.07;31.50;100578.34;5421936;26;19992;-63
2024/04/12 12:46:44;;;;;;;5.50;4.55;;;;;;;26.11;31.66;100567.84;5422097;26;20011;-63
2024/04/12 12:49:10;;;;;;;7.38;4.70;;;;;;;26.05;31.44;100562.31;5422140;26;20109;-63
2024/04/12 12:51:40;;;;;;;8.80;5.07;;;;;;;26.03;31.76;100559.03;5422666;26;19992;-62
2024/04/12 12:54:07;;;;;;;6.05;4.57;;;;;;;26.03;31.91;100564.44;5420203;26;19998;-63
2024/04/12 12:56:33;;;;;;;4.95;4.25;;;;;;;25.98;32.92;100558.06;5422347;26;19991;-63